sensor_id;sensor_type;location;lat;lon;timestamp;P1;durP1;ratioP1;P2;durP2;ratioP2
69703;SDS011;56967;43.538;-5.646;2023-02-28T00:00:51;6.72;;;2.50;;
69703;SDS011;56967;43.538;-5.646;2023-02-28T00:03:17;5.18;;;2.28;;
69703;SDS011;56967;43.538;-5.646;2023-02-28T00:05:42;8.13;;;2.80;;
69703;SDS011;56967;43.538;-5.646;2023-02-28T00:08:08;12.07;;;3.38;;
69703;SDS011;56967;43.538;-5.646;2023-02-28T00:10:34;5.97;;;2.50;;
69703;SDS011;56967;43.538;-5.646;2023-02-28T00:13:02;8.48;;;2.53;;
69703;SDS011;56967;43.538;-5.646;2023-02-28T00:15:29;8.18;;;2.30;;
69703;SDS011;56967;43.538;-5.646;2023-02-28T00:17:56;8.13;;;2.38;;
69703;SDS011;56967;43.538;-5.646;2023-02-28T00:20:22;7.57;;;2.60;;
69703;SDS011;56967;43.538;-5.646;2023-02-28T00:22:49;11.35;;;2.50;;
69703;SDS011;56967;43.538;-5.646;2023-02-28T00:25:18;8.52;;;2.75;;
69703;SDS011;56967;43.538;-5.646;2023-02-28T00:27:46;7.03;;;2.25;;
69703;SDS011;56967;43.538;-5.646;2023-02-28T00:30:16;9.98;;;2.50;;
69703;SDS011;56967;43.538;-5.646;2023-02-28T00:32:45;8.48;;;2.38;;
69703;SDS011;56967;43.538;-5.646;2023-02-28T00:35:11;5.85;;;2.25;;
69703;SDS011;56967;43.538;-5.646;2023-02-28T00:37:37;5.07;;;2.22;;
69703;SDS011;56967;43.538;-5.646;2023-02-28T00:40:03;5.72;;;2.40;;
69703;SDS011;56967;43.538;-5.646;2023-02-28T00:42:31;7.63;;;2.45;;
69703;SDS011;56967;43.538;-5.646;2023-02-28T00:44:57;5.07;;;2.45;;
69703;SDS011;56967;43.538;-5.646;2023-02-28T00:47:22;4.82;;;2.33;;
69703;SDS011;56967;43.538;-5.646;2023-02-28T00:49:48;7.03;;;2.30;;
69703;SDS011;56967;43.538;-5.646;2023-02-28T00:52:13;6.47;;;2.50;;
69703;SDS011;56967;43.538;-5.646;2023-02-28T00:54:39;7.28;;;2.50;;
69703;SDS011;56967;43.538;-5.646;2023-02-28T00:57:04;7.93;;;2.50;;
69703;SDS011;56967;43.538;-5.646;2023-02-28T00:59:30;8.68;;;2.47;;
69703;SDS011;56967;43.538;-5.646;2023-02-28T01:01:55;7.57;;;2.50;;
69703;SDS011;56967;43.538;-5.646;2023-02-28T01:04:21;12.85;;;2.58;;
69703;SDS011;56967;43.538;-5.646;2023-02-28T01:06:47;7.22;;;2.50;;
69703;SDS011;56967;43.538;-5.646;2023-02-28T01:09:12;6.53;;;2.60;;
69703;SDS011;56967;43.538;-5.646;2023-02-28T01:11:38;5.47;;;2.83;;
69703;SDS011;56967;43.538;-5.646;2023-02-28T01:14:05;5.78;;;2.50;;
69703;SDS011;56967;43.538;-5.646;2023-02-28T01:16:31;8.07;;;2.50;;
69703;SDS011;56967;43.538;-5.646;2023-02-28T01:18:57;7.95;;;2.38;;
69703;SDS011;56967;43.538;-5.646;2023-02-28T01:21:22;5.95;;;2.38;;
69703;SDS011;56967;43.538;-5.646;2023-02-28T01:23:48;7.60;;;2.67;;
69703;SDS011;56967;43.538;-5.646;2023-02-28T01:26:19;9.65;;;2.90;;
69703;SDS011;56967;43.538;-5.646;2023-02-28T01:28:47;8.15;;;2.88;;
69703;SDS011;56967;43.538;-5.646;2023-02-28T01:31:16;10.48;;;2.45;;
69703;SDS011;56967;43.538;-5.646;2023-02-28T01:33:43;6.95;;;2.55;;
69703;SDS011;56967;43.538;-5.646;2023-02-28T01:36:12;7.55;;;2.70;;
69703;SDS011;56967;43.538;-5.646;2023-02-28T01:38:40;8.10;;;2.60;;
69703;SDS011;56967;43.538;-5.646;2023-02-28T01:41:06;7.30;;;2.72;;
69703;SDS011;56967;43.538;-5.646;2023-02-28T01:43:52;8.63;;;2.80;;
69703;SDS011;56967;43.538;-5.646;2023-02-28T01:46:20;7.07;;;2.92;;
69703;SDS011;56967;43.538;-5.646;2023-02-28T01:48:58;5.28;;;2.38;;
69703;SDS011;56967;43.538;-5.646;2023-02-28T01:51:26;5.80;;;2.30;;
69703;SDS011;56967;43.538;-5.646;2023-02-28T01:54:03;6.55;;;2.30;;
69703;SDS011;56967;43.538;-5.646;2023-02-28T01:56:38;7.15;;;2.72;;
69703;SDS011;56967;43.538;-5.646;2023-02-28T01:59:09;8.48;;;2.38;;
69703;SDS011;56967;43.538;-5.646;2023-02-28T02:01:36;6.22;;;2.22;;
69703;SDS011;56967;43.538;-5.646;2023-02-28T02:04:02;6.28;;;2.10;;
69703;SDS011;56967;43.538;-5.646;2023-02-28T02:06:29;7.65;;;2.13;;
69703;SDS011;56967;43.538;-5.646;2023-02-28T02:08:58;8.15;;;2.40;;
69703;SDS011;56967;43.538;-5.646;2023-02-28T02:11:24;7.30;;;2.20;;
69703;SDS011;56967;43.538;-5.646;2023-02-28T02:19:30;6.85;;;2.50;;
69703;SDS011;56967;43.538;-5.646;2023-02-28T02:36:30;6.43;;;2.47;;
69703;SDS011;56967;43.538;-5.646;2023-02-28T02:39:25;8.15;;;2.20;;
69703;SDS011;56967;43.538;-5.646;2023-02-28T02:42:05;7.50;;;2.92;;
69703;SDS011;56967;43.538;-5.646;2023-02-28T02:44:40;8.27;;;3.47;;
69703;SDS011;56967;43.538;-5.646;2023-02-28T02:47:12;11.82;;;4.63;;
69703;SDS011;56967;43.538;-5.646;2023-02-28T02:49:42;13.32;;;4.90;;
69703;SDS011;56967;43.538;-5.646;2023-02-28T02:52:14;14.43;;;5.60;;
69703;SDS011;56967;43.538;-5.646;2023-02-28T02:54:44;15.93;;;6.70;;
69703;SDS011;56967;43.538;-5.646;2023-02-28T02:57:31;16.23;;;6.50;;
69703;SDS011;56967;43.538;-5.646;2023-02-28T03:00:03;14.07;;;6.43;;
69703;SDS011;56967;43.538;-5.646;2023-02-28T03:02:33;12.88;;;5.40;;
69703;SDS011;56967;43.538;-5.646;2023-02-28T03:05:06;15.02;;;5.30;;
69703;SDS011;56967;43.538;-5.646;2023-02-28T03:07:38;12.75;;;5.35;;
69703;SDS011;56967;43.538;-5.646;2023-02-28T03:10:25;13.90;;;4.65;;
69703;SDS011;56967;43.538;-5.646;2023-02-28T03:19:02;15.00;;;5.10;;
69703;SDS011;56967;43.538;-5.646;2023-02-28T03:24:54;17.63;;;5.90;;
69703;SDS011;56967;43.538;-5.646;2023-02-28T03:27:29;12.70;;;5.47;;
69703;SDS011;56967;43.538;-5.646;2023-02-28T03:30:02;15.75;;;5.97;;
69703;SDS011;56967;43.538;-5.646;2023-02-28T03:35:16;12.27;;;5.28;;
69703;SDS011;56967;43.538;-5.646;2023-02-28T03:37:47;13.82;;;5.10;;
69703;SDS011;56967;43.538;-5.646;2023-02-28T03:40:17;11.32;;;5.25;;
69703;SDS011;56967;43.538;-5.646;2023-02-28T03:42:47;11.98;;;4.63;;
69703;SDS011;56967;43.538;-5.646;2023-02-28T03:45:18;17.23;;;5.45;;
69703;SDS011;56967;43.538;-5.646;2023-02-28T03:47:52;14.80;;;4.80;;
69703;SDS011;56967;43.538;-5.646;2023-02-28T03:52:57;14.10;;;5.07;;
69703;SDS011;56967;43.538;-5.646;2023-02-28T03:55:30;15.43;;;4.90;;
69703;SDS011;56967;43.538;-5.646;2023-02-28T04:00:59;12.85;;;4.90;;
69703;SDS011;56967;43.538;-5.646;2023-02-28T04:03:33;10.52;;;3.92;;
69703;SDS011;56967;43.538;-5.646;2023-02-28T04:06:00;12.93;;;4.40;;
69703;SDS011;56967;43.538;-5.646;2023-02-28T04:08:26;12.93;;;4.10;;
69703;SDS011;56967;43.538;-5.646;2023-02-28T04:11:02;14.57;;;4.30;;
69703;SDS011;56967;43.538;-5.646;2023-02-28T04:13:31;14.18;;;4.47;;
69703;SDS011;56967;43.538;-5.646;2023-02-28T04:15:57;11.57;;;4.25;;
69703;SDS011;56967;43.538;-5.646;2023-02-28T04:18:23;10.55;;;4.07;;
69703;SDS011;56967;43.538;-5.646;2023-02-28T04:20:48;11.25;;;4.20;;
69703;SDS011;56967;43.538;-5.646;2023-02-28T04:23:14;11.05;;;4.57;;
69703;SDS011;56967;43.538;-5.646;2023-02-28T04:25:39;9.48;;;3.70;;
69703;SDS011;56967;43.538;-5.646;2023-02-28T04:28:06;11.52;;;5.10;;
69703;SDS011;56967;43.538;-5.646;2023-02-28T04:30:31;13.07;;;4.18;;
69703;SDS011;56967;43.538;-5.646;2023-02-28T04:32:57;9.43;;;3.70;;
69703;SDS011;56967;43.538;-5.646;2023-02-28T04:35:23;7.22;;;3.50;;
69703;SDS011;56967;43.538;-5.646;2023-02-28T04:37:49;9.43;;;3.72;;
69703;SDS011;56967;43.538;-5.646;2023-02-28T04:40:14;10.45;;;3.85;;
69703;SDS011;56967;43.538;-5.646;2023-02-28T04:42:40;9.25;;;3.33;;
69703;SDS011;56967;43.538;-5.646;2023-02-28T04:45:06;8.57;;;3.40;;
69703;SDS011;56967;43.538;-5.646;2023-02-28T04:47:35;8.70;;;3.30;;
69703;SDS011;56967;43.538;-5.646;2023-02-28T04:50:00;7.70;;;3.13;;
69703;SDS011;56967;43.538;-5.646;2023-02-28T04:52:27;7.85;;;3.40;;
69703;SDS011;56967;43.538;-5.646;2023-02-28T04:54:52;9.20;;;3.55;;
69703;SDS011;56967;43.538;-5.646;2023-02-28T04:57:18;10.05;;;3.35;;
69703;SDS011;56967;43.538;-5.646;2023-02-28T04:59:43;9.63;;;3.75;;
69703;SDS011;56967;43.538;-5.646;2023-02-28T05:02:09;10.18;;;4.10;;
69703;SDS011;56967;43.538;-5.646;2023-02-28T05:04:35;9.25;;;3.42;;
69703;SDS011;56967;43.538;-5.646;2023-02-28T05:07:01;6.75;;;2.90;;
69703;SDS011;56967;43.538;-5.646;2023-02-28T05:09:28;7.13;;;2.72;;
69703;SDS011;56967;43.538;-5.646;2023-02-28T05:11:53;9.90;;;3.08;;
69703;SDS011;56967;43.538;-5.646;2023-02-28T05:14:19;10.40;;;3.10;;
69703;SDS011;56967;43.538;-5.646;2023-02-28T05:16:45;13.80;;;3.20;;
69703;SDS011;56967;43.538;-5.646;2023-02-28T05:19:10;8.43;;;3.17;;
69703;SDS011;56967;43.538;-5.646;2023-02-28T05:21:37;12.43;;;3.25;;
69703;SDS011;56967;43.538;-5.646;2023-02-28T05:24:10;10.45;;;3.40;;
69703;SDS011;56967;43.538;-5.646;2023-02-28T05:26:38;9.02;;;3.42;;
69703;SDS011;56967;43.538;-5.646;2023-02-28T05:29:05;8.32;;;3.40;;
69703;SDS011;56967;43.538;-5.646;2023-02-28T05:31:31;11.00;;;3.08;;
69703;SDS011;56967;43.538;-5.646;2023-02-28T05:33:57;8.50;;;3.38;;
69703;SDS011;56967;43.538;-5.646;2023-02-28T05:36:23;10.77;;;3.50;;
69703;SDS011;56967;43.538;-5.646;2023-02-28T05:38:49;11.20;;;3.20;;
69703;SDS011;56967;43.538;-5.646;2023-02-28T05:41:15;8.02;;;3.20;;
69703;SDS011;56967;43.538;-5.646;2023-02-28T05:43:42;14.02;;;3.78;;
69703;SDS011;56967;43.538;-5.646;2023-02-28T05:46:08;9.10;;;2.83;;
69703;SDS011;56967;43.538;-5.646;2023-02-28T05:48:36;6.32;;;3.00;;
69703;SDS011;56967;43.538;-5.646;2023-02-28T05:51:03;8.27;;;3.47;;
69703;SDS011;56967;43.538;-5.646;2023-02-28T05:53:29;9.00;;;3.20;;
69703;SDS011;56967;43.538;-5.646;2023-02-28T05:55:55;7.10;;;2.45;;
69703;SDS011;56967;43.538;-5.646;2023-02-28T05:58:21;10.23;;;2.75;;
69703;SDS011;56967;43.538;-5.646;2023-02-28T06:00:47;7.95;;;3.00;;
69703;SDS011;56967;43.538;-5.646;2023-02-28T06:03:13;10.55;;;2.90;;
69703;SDS011;56967;43.538;-5.646;2023-02-28T06:05:39;8.93;;;3.13;;
69703;SDS011;56967;43.538;-5.646;2023-02-28T06:08:04;9.57;;;3.20;;
69703;SDS011;56967;43.538;-5.646;2023-02-28T06:10:32;8.50;;;3.15;;
69703;SDS011;56967;43.538;-5.646;2023-02-28T06:13:02;8.80;;;2.72;;
69703;SDS011;56967;43.538;-5.646;2023-02-28T06:15:29;9.73;;;3.58;;
69703;SDS011;56967;43.538;-5.646;2023-02-28T06:17:55;8.48;;;3.10;;
69703;SDS011;56967;43.538;-5.646;2023-02-28T06:20:21;6.43;;;2.67;;
69703;SDS011;56967;43.538;-5.646;2023-02-28T06:22:48;8.77;;;3.35;;
69703;SDS011;56967;43.538;-5.646;2023-02-28T06:25:15;8.98;;;3.17;;
69703;SDS011;56967;43.538;-5.646;2023-02-28T06:27:40;7.72;;;3.13;;
69703;SDS011;56967;43.538;-5.646;2023-02-28T06:30:06;5.38;;;2.63;;
69703;SDS011;56967;43.538;-5.646;2023-02-28T06:32:32;9.52;;;2.88;;
69703;SDS011;56967;43.538;-5.646;2023-02-28T06:34:58;11.15;;;3.28;;
69703;SDS011;56967;43.538;-5.646;2023-02-28T06:37:23;11.25;;;3.40;;
69703;SDS011;56967;43.538;-5.646;2023-02-28T06:39:53;10.15;;;3.45;;
69703;SDS011;56967;43.538;-5.646;2023-02-28T06:42:21;11.48;;;3.38;;
69703;SDS011;56967;43.538;-5.646;2023-02-28T06:44:50;8.65;;;3.22;;
69703;SDS011;56967;43.538;-5.646;2023-02-28T06:47:16;10.80;;;3.63;;
69703;SDS011;56967;43.538;-5.646;2023-02-28T06:49:42;8.75;;;2.53;;
69703;SDS011;56967;43.538;-5.646;2023-02-28T06:52:07;9.02;;;3.05;;
69703;SDS011;56967;43.538;-5.646;2023-02-28T06:54:35;7.63;;;2.92;;
69703;SDS011;56967;43.538;-5.646;2023-02-28T06:57:01;6.28;;;2.50;;
69703;SDS011;56967;43.538;-5.646;2023-02-28T06:59:27;10.40;;;2.40;;
69703;SDS011;56967;43.538;-5.646;2023-02-28T07:01:53;8.18;;;3.08;;
69703;SDS011;56967;43.538;-5.646;2023-02-28T07:04:20;5.90;;;2.60;;
69703;SDS011;56967;43.538;-5.646;2023-02-28T07:06:46;8.88;;;2.70;;
69703;SDS011;56967;43.538;-5.646;2023-02-28T07:09:11;11.45;;;2.97;;
69703;SDS011;56967;43.538;-5.646;2023-02-28T07:11:37;9.07;;;2.45;;
69703;SDS011;56967;43.538;-5.646;2023-02-28T07:14:02;7.07;;;2.30;;
69703;SDS011;56967;43.538;-5.646;2023-02-28T07:16:28;8.50;;;2.78;;
69703;SDS011;56967;43.538;-5.646;2023-02-28T07:18:54;8.50;;;2.70;;
69703;SDS011;56967;43.538;-5.646;2023-02-28T07:21:20;8.18;;;2.58;;
69703;SDS011;56967;43.538;-5.646;2023-02-28T07:23:45;10.25;;;2.90;;
69703;SDS011;56967;43.538;-5.646;2023-02-28T07:26:12;7.20;;;2.75;;
69703;SDS011;56967;43.538;-5.646;2023-02-28T07:28:43;6.40;;;2.50;;
69703;SDS011;56967;43.538;-5.646;2023-02-28T07:31:09;9.27;;;2.97;;
69703;SDS011;56967;43.538;-5.646;2023-02-28T07:33:36;8.23;;;2.80;;
69703;SDS011;56967;43.538;-5.646;2023-02-28T07:36:05;7.70;;;3.13;;
69703;SDS011;56967;43.538;-5.646;2023-02-28T07:38:34;12.50;;;2.70;;
69703;SDS011;56967;43.538;-5.646;2023-02-28T07:41:00;6.63;;;2.25;;
69703;SDS011;56967;43.538;-5.646;2023-02-28T07:43:29;8.43;;;2.70;;
69703;SDS011;56967;43.538;-5.646;2023-02-28T07:45:55;11.30;;;3.03;;
69703;SDS011;56967;43.538;-5.646;2023-02-28T07:48:21;10.65;;;3.58;;
69703;SDS011;56967;43.538;-5.646;2023-02-28T07:50:53;5.75;;;2.53;;
69703;SDS011;56967;43.538;-5.646;2023-02-28T07:53:20;7.75;;;2.40;;
69703;SDS011;56967;43.538;-5.646;2023-02-28T07:55:46;6.38;;;2.20;;
69703;SDS011;56967;43.538;-5.646;2023-02-28T07:58:11;12.07;;;2.50;;
69703;SDS011;56967;43.538;-5.646;2023-02-28T08:00:37;10.32;;;2.90;;
69703;SDS011;56967;43.538;-5.646;2023-02-28T08:03:03;8.95;;;2.38;;
69703;SDS011;56967;43.538;-5.646;2023-02-28T08:05:28;6.10;;;2.42;;
69703;SDS011;56967;43.538;-5.646;2023-02-28T08:07:55;8.95;;;2.20;;
69703;SDS011;56967;43.538;-5.646;2023-02-28T08:10:20;13.80;;;2.50;;
69703;SDS011;56967;43.538;-5.646;2023-02-28T08:12:46;9.63;;;2.30;;
69703;SDS011;56967;43.538;-5.646;2023-02-28T08:15:11;6.03;;;2.10;;
69703;SDS011;56967;43.538;-5.646;2023-02-28T08:17:37;6.03;;;1.92;;
69703;SDS011;56967;43.538;-5.646;2023-02-28T08:20:03;9.98;;;2.50;;
69703;SDS011;56967;43.538;-5.646;2023-02-28T08:22:29;5.03;;;2.15;;
69703;SDS011;56967;43.538;-5.646;2023-02-28T08:24:54;6.97;;;2.60;;
69703;SDS011;56967;43.538;-5.646;2023-02-28T08:27:20;7.20;;;2.78;;
69703;SDS011;56967;43.538;-5.646;2023-02-28T08:29:46;8.90;;;2.80;;
69703;SDS011;56967;43.538;-5.646;2023-02-28T08:32:11;8.43;;;2.95;;
69703;SDS011;56967;43.538;-5.646;2023-02-28T08:34:38;6.10;;;2.55;;
69703;SDS011;56967;43.538;-5.646;2023-02-28T08:37:04;7.75;;;2.85;;
69703;SDS011;56967;43.538;-5.646;2023-02-28T08:39:30;4.72;;;2.30;;
69703;SDS011;56967;43.538;-5.646;2023-02-28T08:41:55;7.18;;;2.85;;
69703;SDS011;56967;43.538;-5.646;2023-02-28T08:44:20;6.78;;;2.50;;
69703;SDS011;56967;43.538;-5.646;2023-02-28T08:46:46;6.32;;;2.30;;
69703;SDS011;56967;43.538;-5.646;2023-02-28T08:49:12;8.57;;;2.40;;
69703;SDS011;56967;43.538;-5.646;2023-02-28T08:51:38;9.32;;;2.40;;
69703;SDS011;56967;43.538;-5.646;2023-02-28T08:54:03;6.65;;;2.30;;
69703;SDS011;56967;43.538;-5.646;2023-02-28T08:56:29;8.35;;;2.40;;
69703;SDS011;56967;43.538;-5.646;2023-02-28T08:58:56;6.25;;;2.60;;
69703;SDS011;56967;43.538;-5.646;2023-02-28T09:01:23;7.32;;;2.80;;
69703;SDS011;56967;43.538;-5.646;2023-02-28T09:03:52;6.78;;;2.50;;
69703;SDS011;56967;43.538;-5.646;2023-02-28T09:06:19;12.02;;;2.08;;
69703;SDS011;56967;43.538;-5.646;2023-02-28T09:08:46;8.98;;;2.67;;
69703;SDS011;56967;43.538;-5.646;2023-02-28T09:11:12;11.23;;;2.33;;
69703;SDS011;56967;43.538;-5.646;2023-02-28T09:13:37;3.53;;;2.10;;
69703;SDS011;56967;43.538;-5.646;2023-02-28T09:16:04;8.25;;;2.30;;
69703;SDS011;56967;43.538;-5.646;2023-02-28T09:18:31;4.22;;;1.85;;
69703;SDS011;56967;43.538;-5.646;2023-02-28T09:20:59;5.60;;;2.03;;
69703;SDS011;56967;43.538;-5.646;2023-02-28T09:23:28;4.70;;;2.17;;
69703;SDS011;56967;43.538;-5.646;2023-02-28T09:25:54;8.00;;;2.30;;
69703;SDS011;56967;43.538;-5.646;2023-02-28T09:28:20;8.70;;;2.80;;
69703;SDS011;56967;43.538;-5.646;2023-02-28T09:30:50;5.97;;;2.25;;
69703;SDS011;56967;43.538;-5.646;2023-02-28T09:33:17;8.15;;;2.47;;
69703;SDS011;56967;43.538;-5.646;2023-02-28T09:35:46;9.55;;;2.40;;
69703;SDS011;56967;43.538;-5.646;2023-02-28T09:38:12;6.43;;;2.17;;
69703;SDS011;56967;43.538;-5.646;2023-02-28T09:40:58;5.05;;;1.75;;
69703;SDS011;56967;43.538;-5.646;2023-02-28T09:43:27;9.13;;;2.10;;
69703;SDS011;56967;43.538;-5.646;2023-02-28T09:45:59;6.20;;;1.90;;
69703;SDS011;56967;43.538;-5.646;2023-02-28T09:48:35;8.35;;;2.17;;
69703;SDS011;56967;43.538;-5.646;2023-02-28T09:51:05;2.65;;;1.65;;
69703;SDS011;56967;43.538;-5.646;2023-02-28T09:53:40;6.90;;;2.00;;
69703;SDS011;56967;43.538;-5.646;2023-02-28T09:56:10;5.10;;;1.70;;
69703;SDS011;56967;43.538;-5.646;2023-02-28T10:01:25;7.05;;;1.80;;
69703;SDS011;56967;43.538;-5.646;2023-02-28T10:04:03;8.77;;;1.88;;
69703;SDS011;56967;43.538;-5.646;2023-02-28T10:06:48;3.33;;;1.60;;
69703;SDS011;56967;43.538;-5.646;2023-02-28T10:09:19;6.15;;;1.80;;
69703;SDS011;56967;43.538;-5.646;2023-02-28T10:11:50;4.13;;;1.75;;
69703;SDS011;56967;43.538;-5.646;2023-02-28T10:14:18;5.57;;;1.77;;
69703;SDS011;56967;43.538;-5.646;2023-02-28T10:16:47;8.32;;;1.90;;
69703;SDS011;56967;43.538;-5.646;2023-02-28T10:24:30;11.43;;;1.88;;
69703;SDS011;56967;43.538;-5.646;2023-02-28T10:27:02;9.63;;;2.17;;
69703;SDS011;56967;43.538;-5.646;2023-02-28T10:29:37;4.97;;;1.83;;
69703;SDS011;56967;43.538;-5.646;2023-02-28T10:32:08;4.75;;;1.48;;
69703;SDS011;56967;43.538;-5.646;2023-02-28T10:34:38;3.40;;;1.50;;
69703;SDS011;56967;43.538;-5.646;2023-02-28T10:37:04;5.20;;;1.70;;
69703;SDS011;56967;43.538;-5.646;2023-02-28T10:39:36;7.00;;;1.95;;
69703;SDS011;56967;43.538;-5.646;2023-02-28T10:42:18;7.80;;;1.70;;
69703;SDS011;56967;43.538;-5.646;2023-02-28T10:45:11;7.85;;;1.67;;
69703;SDS011;56967;43.538;-5.646;2023-02-28T10:48:00;7.28;;;2.00;;
69703;SDS011;56967;43.538;-5.646;2023-02-28T10:50:34;7.10;;;1.95;;
69703;SDS011;56967;43.538;-5.646;2023-02-28T10:53:31;7.15;;;1.85;;
69703;SDS011;56967;43.538;-5.646;2023-02-28T10:58:31;5.63;;;1.95;;
69703;SDS011;56967;43.538;-5.646;2023-02-28T11:01:17;2.72;;;1.38;;
69703;SDS011;56967;43.538;-5.646;2023-02-28T11:03:45;5.47;;;1.88;;
69703;SDS011;56967;43.538;-5.646;2023-02-28T11:06:33;4.40;;;1.80;;
69703;SDS011;56967;43.538;-5.646;2023-02-28T11:09:00;3.47;;;1.75;;
69703;SDS011;56967;43.538;-5.646;2023-02-28T11:11:29;4.22;;;1.70;;
69703;SDS011;56967;43.538;-5.646;2023-02-28T11:14:06;4.32;;;1.92;;
69703;SDS011;56967;43.538;-5.646;2023-02-28T11:16:42;11.32;;;2.03;;
69703;SDS011;56967;43.538;-5.646;2023-02-28T11:19:15;4.43;;;1.88;;
69703;SDS011;56967;43.538;-5.646;2023-02-28T11:21:49;9.90;;;1.98;;
69703;SDS011;56967;43.538;-5.646;2023-02-28T11:26:57;9.18;;;1.90;;
69703;SDS011;56967;43.538;-5.646;2023-02-28T11:29:32;7.70;;;1.83;;
69703;SDS011;56967;43.538;-5.646;2023-02-28T11:32:05;8.35;;;1.98;;
69703;SDS011;56967;43.538;-5.646;2023-02-28T11:34:34;7.00;;;1.90;;
69703;SDS011;56967;43.538;-5.646;2023-02-28T11:37:01;7.65;;;2.00;;
69703;SDS011;56967;43.538;-5.646;2023-02-28T11:39:31;9.48;;;1.98;;
69703;SDS011;56967;43.538;-5.646;2023-02-28T11:56:06;6.20;;;2.28;;
69703;SDS011;56967;43.538;-5.646;2023-02-28T12:12:44;6.20;;;1.92;;
69703;SDS011;56967;43.538;-5.646;2023-02-28T12:18:07;7.15;;;1.77;;
69703;SDS011;56967;43.538;-5.646;2023-02-28T12:20:59;7.20;;;2.20;;
69703;SDS011;56967;43.538;-5.646;2023-02-28T12:28:36;8.00;;;2.10;;
69703;SDS011;56967;43.538;-5.646;2023-02-28T12:31:26;3.83;;;2.00;;
69703;SDS011;56967;43.538;-5.646;2023-02-28T12:34:03;3.53;;;1.50;;
69703;SDS011;56967;43.538;-5.646;2023-02-28T12:36:35;3.10;;;1.90;;
69703;SDS011;56967;43.538;-5.646;2023-02-28T12:41:39;4.40;;;2.10;;
69703;SDS011;56967;43.538;-5.646;2023-02-28T12:44:52;8.45;;;2.53;;
69703;SDS011;56967;43.538;-5.646;2023-02-28T12:47:03;9.88;;;2.55;;
69703;SDS011;56967;43.538;-5.646;2023-02-28T12:49:38;4.90;;;2.10;;
69703;SDS011;56967;43.538;-5.646;2023-02-28T12:52:10;5.22;;;1.92;;
69703;SDS011;56967;43.538;-5.646;2023-02-28T12:54:47;8.43;;;2.50;;
69703;SDS011;56967;43.538;-5.646;2023-02-28T13:00:16;5.55;;;1.95;;
69703;SDS011;56967;43.538;-5.646;2023-02-28T13:11:32;13.10;;;2.30;;
69703;SDS011;56967;43.538;-5.646;2023-02-28T13:14:01;10.85;;;2.40;;
69703;SDS011;56967;43.538;-5.646;2023-02-28T13:16:32;11.35;;;2.63;;
69703;SDS011;56967;43.538;-5.646;2023-02-28T13:19:16;11.65;;;2.47;;
69703;SDS011;56967;43.538;-5.646;2023-02-28T13:21:43;5.50;;;2.15;;
69703;SDS011;56967;43.538;-5.646;2023-02-28T13:24:10;8.38;;;2.10;;
69703;SDS011;56967;43.538;-5.646;2023-02-28T13:29:32;4.53;;;2.30;;
69703;SDS011;56967;43.538;-5.646;2023-02-28T14:06:52;6.40;;;2.30;;
69703;SDS011;56967;43.538;-5.646;2023-02-28T14:09:24;6.78;;;2.17;;
69703;SDS011;56967;43.538;-5.646;2023-02-28T14:15:25;5.15;;;2.00;;
69703;SDS011;56967;43.538;-5.646;2023-02-28T14:17:54;8.73;;;2.53;;
69703;SDS011;56967;43.538;-5.646;2023-02-28T14:20:20;6.28;;;2.33;;
69703;SDS011;56967;43.538;-5.646;2023-02-28T14:23:07;4.25;;;2.20;;
69703;SDS011;56967;43.538;-5.646;2023-02-28T14:26:02;3.83;;;1.98;;
69703;SDS011;56967;43.538;-5.646;2023-02-28T14:28:42;5.40;;;2.17;;
69703;SDS011;56967;43.538;-5.646;2023-02-28T14:31:37;5.82;;;2.05;;
69703;SDS011;56967;43.538;-5.646;2023-02-28T14:36:58;8.30;;;1.90;;
69703;SDS011;56967;43.538;-5.646;2023-02-28T14:39:26;8.45;;;1.85;;
69703;SDS011;56967;43.538;-5.646;2023-02-28T14:41:56;5.75;;;1.98;;
69703;SDS011;56967;43.538;-5.646;2023-02-28T14:44:27;8.93;;;2.10;;
69703;SDS011;56967;43.538;-5.646;2023-02-28T14:46:53;5.78;;;1.92;;
69703;SDS011;56967;43.538;-5.646;2023-02-28T14:49:24;5.72;;;2.05;;
69703;SDS011;56967;43.538;-5.646;2023-02-28T14:52:03;4.95;;;2.03;;
69703;SDS011;56967;43.538;-5.646;2023-02-28T14:54:42;5.82;;;2.45;;
69703;SDS011;56967;43.538;-5.646;2023-02-28T15:02:47;4.90;;;1.80;;
69703;SDS011;56967;43.538;-5.646;2023-02-28T15:07:41;4.72;;;2.17;;
69703;SDS011;56967;43.538;-5.646;2023-02-28T15:12:35;5.68;;;2.20;;
69703;SDS011;56967;43.538;-5.646;2023-02-28T15:15:02;3.42;;;1.92;;
69703;SDS011;56967;43.538;-5.646;2023-02-28T15:17:28;5.25;;;1.98;;
69703;SDS011;56967;43.538;-5.646;2023-02-28T15:19:54;2.45;;;1.60;;
69703;SDS011;56967;43.538;-5.646;2023-02-28T15:22:23;3.70;;;1.67;;
69703;SDS011;56967;43.538;-5.646;2023-02-28T15:24:56;5.03;;;1.80;;
69703;SDS011;56967;43.538;-5.646;2023-02-28T15:27:26;3.60;;;1.70;;
69703;SDS011;56967;43.538;-5.646;2023-02-28T15:29:57;3.50;;;1.70;;
69703;SDS011;56967;43.538;-5.646;2023-02-28T15:32:38;3.65;;;1.60;;
69703;SDS011;56967;43.538;-5.646;2023-02-28T15:37:57;5.63;;;1.80;;
69703;SDS011;56967;43.538;-5.646;2023-02-28T15:40:29;7.28;;;1.77;;
69703;SDS011;56967;43.538;-5.646;2023-02-28T15:43:04;4.75;;;2.00;;
69703;SDS011;56967;43.538;-5.646;2023-02-28T15:48:13;3.58;;;1.60;;
69703;SDS011;56967;43.538;-5.646;2023-02-28T15:50:42;7.47;;;2.13;;
69703;SDS011;56967;43.538;-5.646;2023-02-28T15:53:19;4.05;;;1.65;;
69703;SDS011;56967;43.538;-5.646;2023-02-28T15:55:52;8.65;;;2.25;;
69703;SDS011;56967;43.538;-5.646;2023-02-28T15:58:19;3.25;;;1.45;;
69703;SDS011;56967;43.538;-5.646;2023-02-28T16:00:59;2.75;;;1.90;;
69703;SDS011;56967;43.538;-5.646;2023-02-28T16:03:26;5.32;;;1.70;;
69703;SDS011;56967;43.538;-5.646;2023-02-28T16:08:47;4.75;;;1.73;;
69703;SDS011;56967;43.538;-5.646;2023-02-28T16:11:13;4.13;;;1.80;;
69703;SDS011;56967;43.538;-5.646;2023-02-28T16:13:39;5.47;;;1.70;;
69703;SDS011;56967;43.538;-5.646;2023-02-28T16:16:05;5.25;;;1.75;;
69703;SDS011;56967;43.538;-5.646;2023-02-28T16:18:31;4.75;;;1.58;;
69703;SDS011;56967;43.538;-5.646;2023-02-28T16:20:56;2.95;;;1.60;;
69703;SDS011;56967;43.538;-5.646;2023-02-28T16:23:22;7.28;;;2.00;;
69703;SDS011;56967;43.538;-5.646;2023-02-28T16:25:47;4.18;;;1.83;;
69703;SDS011;56967;43.538;-5.646;2023-02-28T16:28:31;6.80;;;2.15;;
69703;SDS011;56967;43.538;-5.646;2023-02-28T16:31:00;13.65;;;2.38;;
69703;SDS011;56967;43.538;-5.646;2023-02-28T16:33:30;7.25;;;2.25;;
69703;SDS011;56967;43.538;-5.646;2023-02-28T16:35:58;5.18;;;2.22;;
69703;SDS011;56967;43.538;-5.646;2023-02-28T16:38:24;9.35;;;2.60;;
69703;SDS011;56967;43.538;-5.646;2023-02-28T16:40:51;6.05;;;2.17;;
69703;SDS011;56967;43.538;-5.646;2023-02-28T16:43:19;5.72;;;2.15;;
69703;SDS011;56967;43.538;-5.646;2023-02-28T16:45:47;8.23;;;2.10;;
69703;SDS011;56967;43.538;-5.646;2023-02-28T16:48:16;7.05;;;2.40;;
69703;SDS011;56967;43.538;-5.646;2023-02-28T16:50:42;5.20;;;1.73;;
69703;SDS011;56967;43.538;-5.646;2023-02-28T16:53:10;6.22;;;1.75;;
69703;SDS011;56967;43.538;-5.646;2023-02-28T16:55:36;7.80;;;2.05;;
69703;SDS011;56967;43.538;-5.646;2023-02-28T16:58:03;5.00;;;2.33;;
69703;SDS011;56967;43.538;-5.646;2023-02-28T17:00:30;4.65;;;1.70;;
69703;SDS011;56967;43.538;-5.646;2023-02-28T17:02:57;4.85;;;2.00;;
69703;SDS011;56967;43.538;-5.646;2023-02-28T17:05:24;4.30;;;2.20;;
69703;SDS011;56967;43.538;-5.646;2023-02-28T17:07:51;3.90;;;2.22;;
69703;SDS011;56967;43.538;-5.646;2023-02-28T17:10:17;11.60;;;2.95;;
69703;SDS011;56967;43.538;-5.646;2023-02-28T17:12:45;12.15;;;3.75;;
69703;SDS011;56967;43.538;-5.646;2023-02-28T17:15:11;6.45;;;2.50;;
69703;SDS011;56967;43.538;-5.646;2023-02-28T17:17:38;10.85;;;2.33;;
69703;SDS011;56967;43.538;-5.646;2023-02-28T17:20:05;7.85;;;2.30;;
69703;SDS011;56967;43.538;-5.646;2023-02-28T17:22:32;6.88;;;2.20;;
69703;SDS011;56967;43.538;-5.646;2023-02-28T17:24:57;4.85;;;2.00;;
69703;SDS011;56967;43.538;-5.646;2023-02-28T17:27:24;6.97;;;2.03;;